createdAt,value
2017-12-20T00:01:40.434Z,101348.41
2017-12-20T00:04:08.030Z,101353.55
2017-12-20T00:06:35.695Z,101350.16
2017-12-20T00:09:03.383Z,101352.73
2017-12-20T00:11:31.045Z,101354.64
2017-12-20T00:13:58.703Z,101355.63
2017-12-20T00:16:26.302Z,101363.27
2017-12-20T00:18:53.901Z,101363.42
2017-12-20T00:21:21.611Z,101363.89
2017-12-20T00:23:49.271Z,101364.16
2017-12-20T00:26:16.879Z,101362.61
2017-12-20T00:28:44.532Z,101367.86
2017-12-20T00:31:12.144Z,101374.13
2017-12-20T00:33:39.747Z,101371.67
2017-12-20T00:36:07.398Z,101369.53
2017-12-20T00:38:35.064Z,101368.40
2017-12-20T00:41:02.718Z,101367.81
2017-12-20T00:43:30.358Z,101365.78
2017-12-20T00:45:57.971Z,101368.32
2017-12-20T00:48:25.579Z,101369.84
2017-12-20T00:50:53.251Z,101371.31
2017-12-20T00:53:20.859Z,101375.52
2017-12-20T00:55:48.458Z,101372.20
2017-12-20T00:58:16.179Z,101369.27
2017-12-20T01:00:43.781Z,101368.48
2017-12-20T01:03:11.492Z,101373.47
2017-12-20T01:05:39.232Z,101370.28
2017-12-20T01:08:06.859Z,101364.81
2017-12-20T01:10:34.458Z,101366.96
2017-12-20T01:13:02.111Z,101365.17
2017-12-20T01:15:29.715Z,101366.14
2017-12-20T01:17:57.306Z,101364.59
2017-12-20T01:20:24.971Z,101360.69
2017-12-20T01:22:52.579Z,101362.09
2017-12-20T01:25:20.239Z,101361.30
2017-12-20T01:27:47.962Z,101360.25
2017-12-20T01:30:15.566Z,101363.27
2017-12-20T01:32:43.227Z,101354.00
2017-12-20T01:35:10.893Z,101353.41
2017-12-20T01:37:38.495Z,101347.34
2017-12-20T01:40:06.098Z,101347.10
2017-12-20T01:42:36.591Z,101349.65
2017-12-20T01:45:04.196Z,101345.41
2017-12-20T01:47:31.867Z,101342.76
2017-12-20T01:49:59.547Z,101350.69
2017-12-20T01:52:27.203Z,101348.22
2017-12-20T01:54:54.855Z,101343.79
2017-12-20T01:57:22.533Z,101342.47
2017-12-20T01:59:50.192Z,101341.60
2017-12-20T02:02:17.787Z,101338.45
2017-12-20T02:04:45.434Z,101337.70
2017-12-20T02:07:13.096Z,101341.61
2017-12-20T02:09:40.694Z,101330.53
2017-12-20T02:12:08.347Z,101339.97
2017-12-20T02:14:35.944Z,101344.92
2017-12-20T02:17:03.559Z,101346.66
2017-12-20T02:19:31.312Z,101340.15
2017-12-20T02:21:58.924Z,101342.80
2017-12-20T02:24:26.583Z,101343.45
2017-12-20T02:26:54.248Z,101339.37
2017-12-20T02:29:21.851Z,101340.96
2017-12-20T02:31:49.456Z,101350.47
2017-12-20T02:34:17.114Z,101349.84
2017-12-20T02:36:44.722Z,101353.58
2017-12-20T02:39:12.339Z,101362.16
2017-12-20T02:41:40.075Z,101358.83
2017-12-20T02:44:07.699Z,101361.20
2017-12-20T02:46:35.380Z,101359.91
2017-12-20T02:49:03.123Z,101359.67
2017-12-20T02:51:30.743Z,101355.45
2017-12-20T02:53:58.354Z,101360.86
2017-12-20T02:56:26.055Z,101358.51
2017-12-20T02:58:53.803Z,101359.77
2017-12-20T03:01:21.422Z,101365.80
2017-12-20T03:03:49.143Z,101365.92
2017-12-20T03:06:16.774Z,101368.69
2017-12-20T03:08:44.393Z,101365.31
2017-12-20T03:11:12.082Z,101369.94
2017-12-20T03:13:39.727Z,101368.08
2017-12-20T03:16:07.567Z,101365.75
2017-12-20T03:18:35.288Z,101362.56
2017-12-20T03:21:02.898Z,101366.31
2017-12-20T03:23:30.563Z,101365.94
2017-12-20T03:25:58.223Z,101366.63
2017-12-20T03:28:25.827Z,101367.59
2017-12-20T03:30:53.448Z,101366.16
2017-12-20T03:33:21.178Z,101373.19
2017-12-20T03:35:48.860Z,101363.67
2017-12-20T03:38:16.531Z,101366.13
2017-12-20T03:40:44.278Z,101374.44
2017-12-20T03:43:11.957Z,101367.78
2017-12-20T03:45:39.623Z,101372.11
2017-12-20T03:48:07.286Z,101366.80
2017-12-20T03:50:35.004Z,101371.47
2017-12-20T03:53:02.623Z,101369.44
2017-12-20T03:55:47.924Z,101372.56
2017-12-20T03:58:15.522Z,101372.59
2017-12-20T04:00:43.120Z,101373.13
2017-12-20T04:03:10.781Z,101376.53
2017-12-20T04:05:38.435Z,101377.94
2017-12-20T04:08:06.099Z,101375.88
2017-12-20T04:10:33.823Z,101382.72
2017-12-20T04:13:01.431Z,101387.39
2017-12-20T04:15:29.134Z,101379.84
2017-12-20T04:17:56.799Z,101377.84
2017-12-20T04:20:24.410Z,101382.05
2017-12-20T04:22:52.091Z,101387.79
2017-12-20T04:25:19.819Z,101388.68
2017-12-20T04:28:05.020Z,101390.09
2017-12-20T04:30:32.699Z,101398.09
2017-12-20T04:33:00.298Z,101397.76
2017-12-20T04:35:27.907Z,101396.66
2017-12-20T04:37:55.626Z,101396.84
2017-12-20T04:40:23.235Z,101399.70
2017-12-20T04:42:50.846Z,101407.27
2017-12-20T04:45:18.559Z,101407.55
2017-12-20T04:47:46.223Z,101404.14
2017-12-20T04:50:13.827Z,101408.71
2017-12-20T04:52:41.483Z,101410.54
2017-12-20T04:55:09.091Z,101408.14
2017-12-20T04:57:36.702Z,101405.70
2017-12-20T05:00:04.390Z,101411.11
2017-12-20T05:02:32.001Z,101416.98
2017-12-20T05:04:59.609Z,101418.88
2017-12-20T05:07:27.279Z,101420.05
2017-12-20T05:09:54.883Z,101422.85
2017-12-20T05:12:22.490Z,101425.55
2017-12-20T05:14:50.147Z,101428.50
2017-12-20T05:17:17.751Z,101427.42
2017-12-20T05:19:45.362Z,101424.80
2017-12-20T05:22:13.019Z,101423.60
2017-12-20T05:24:40.779Z,101426.19
2017-12-20T05:27:08.378Z,101432.92
2017-12-20T05:29:36.043Z,101431.00
2017-12-20T05:32:03.764Z,101433.80
2017-12-20T05:34:31.366Z,101435.45
2017-12-20T05:36:59.023Z,101440.30
2017-12-20T05:39:26.682Z,101444.75
2017-12-20T05:41:54.348Z,101439.03
2017-12-20T05:44:21.999Z,101441.98
2017-12-20T05:46:49.613Z,101445.35
2017-12-20T05:49:17.279Z,101442.76
2017-12-20T05:51:44.949Z,101440.25
2017-12-20T05:54:12.556Z,101446.09
2017-12-20T05:56:40.164Z,101441.61
2017-12-20T05:59:07.832Z,101445.54
2017-12-20T06:01:35.442Z,101443.75
2017-12-20T06:04:03.049Z,101443.28
2017-12-20T06:06:30.738Z,101451.74
2017-12-20T06:08:58.347Z,101451.31
2017-12-20T06:11:26.015Z,101453.96
2017-12-20T06:13:53.727Z,101453.27
2017-12-20T06:16:21.334Z,101453.19
2017-12-20T06:18:48.934Z,101457.72
2017-12-20T06:21:16.607Z,101452.31
2017-12-20T06:23:44.218Z,101453.67
2017-12-20T06:26:11.887Z,101449.90
2017-12-20T06:28:39.599Z,101453.17
2017-12-20T06:31:07.204Z,101454.63
2017-12-20T06:33:34.867Z,101457.27
2017-12-20T06:36:02.588Z,101458.89
2017-12-20T06:38:30.219Z,101464.20
2017-12-20T06:40:57.823Z,101465.16
2017-12-20T06:43:25.502Z,101462.14
2017-12-20T06:45:53.164Z,101464.67
2017-12-20T06:48:20.762Z,101465.88
2017-12-20T06:50:48.424Z,101467.31
2017-12-20T06:53:16.088Z,101471.94
2017-12-20T06:55:43.691Z,101470.13
2017-12-20T06:58:11.351Z,101466.44
2017-12-20T07:00:38.955Z,101472.84
2017-12-20T07:03:06.612Z,101477.95
2017-12-20T07:05:34.352Z,101477.28
2017-12-20T07:08:01.959Z,101477.91
2017-12-20T07:10:29.619Z,101474.28
2017-12-20T07:12:57.303Z,101475.20
2017-12-20T07:15:24.964Z,101480.95
2017-12-20T07:17:52.563Z,101479.88
2017-12-20T07:20:20.283Z,101489.00
2017-12-20T07:22:47.948Z,101492.98
2017-12-20T07:25:15.551Z,101494.16
2017-12-20T07:27:43.267Z,101490.25
2017-12-20T07:30:10.935Z,101494.64
2017-12-20T07:32:38.539Z,101502.53
2017-12-20T07:35:06.275Z,101494.47
2017-12-20T07:37:33.896Z,101495.14
2017-12-20T07:40:01.508Z,101501.86
2017-12-20T07:42:29.219Z,101500.31
2017-12-20T07:44:56.827Z,101505.66
2017-12-20T07:47:24.489Z,101506.91
2017-12-20T07:49:52.235Z,101507.57
2017-12-20T07:52:19.899Z,101514.28
2017-12-20T07:54:47.503Z,101519.16
2017-12-20T07:57:15.223Z,101516.27
2017-12-20T07:59:42.888Z,101520.56
2017-12-20T08:02:10.491Z,101524.95
2017-12-20T08:04:38.151Z,101528.16
2017-12-20T08:07:05.755Z,101530.41
2017-12-20T08:09:33.365Z,101537.51
2017-12-20T08:12:01.056Z,101536.09
2017-12-20T08:14:28.655Z,101539.31
2017-12-20T08:16:56.316Z,101529.16
2017-12-20T08:19:23.971Z,101535.01
2017-12-20T08:21:51.571Z,101534.52
2017-12-20T08:24:19.175Z,101540.78
2017-12-20T08:26:46.834Z,101543.81
2017-12-20T08:29:14.438Z,101538.33
2017-12-20T08:31:42.049Z,101534.89
2017-12-20T08:34:09.716Z,101539.25
2017-12-20T08:36:37.381Z,101546.97
2017-12-20T08:39:05.091Z,101549.59
2017-12-20T08:41:32.809Z,101544.06
2017-12-20T08:44:00.419Z,101543.59
2017-12-20T08:46:28.025Z,101545.84
2017-12-20T08:48:55.775Z,101543.51
2017-12-20T08:51:23.444Z,101544.64
2017-12-20T08:53:51.047Z,101541.81
2017-12-20T08:56:18.702Z,101534.43
2017-12-20T08:58:46.303Z,101537.09
2017-12-20T09:01:13.905Z,101537.59
2017-12-20T09:03:41.568Z,101527.53
2017-12-20T09:06:09.231Z,101527.70
2017-12-20T09:08:36.835Z,101529.41
2017-12-20T09:11:04.491Z,101523.97
2017-12-20T09:13:32.095Z,101524.41
2017-12-20T09:15:59.730Z,101530.56
2017-12-20T09:18:27.443Z,101526.42
2017-12-20T09:20:55.119Z,101527.75
2017-12-20T09:23:22.784Z,101515.37
2017-12-20T09:25:50.503Z,101517.19
2017-12-20T09:28:18.103Z,101520.47
2017-12-20T09:30:45.710Z,101516.27
2017-12-20T09:33:13.375Z,101515.35
2017-12-20T09:35:40.983Z,101522.91
2017-12-20T09:38:08.584Z,101518.98
2017-12-20T09:40:36.255Z,101519.25
2017-12-20T09:43:03.915Z,101511.13
2017-12-20T09:45:31.515Z,101516.05
2017-12-20T09:47:59.192Z,101510.86
2017-12-20T09:50:26.791Z,101502.34
2017-12-20T09:52:54.391Z,101499.99
2017-12-20T09:55:22.133Z,101503.55
2017-12-20T09:57:49.793Z,101496.40
2017-12-20T10:00:17.527Z,101491.78
2017-12-20T10:02:45.191Z,101486.88
2017-12-20T10:05:12.804Z,101492.64
2017-12-20T10:07:40.469Z,101491.30
2017-12-20T10:10:08.179Z,101485.75
2017-12-20T10:12:35.803Z,101478.45
2017-12-20T10:15:03.502Z,101480.57
2017-12-20T10:17:31.175Z,101479.08
2017-12-20T10:19:58.790Z,101483.77
2017-12-20T10:22:26.395Z,101476.09
2017-12-20T10:24:54.047Z,101482.39
2017-12-20T10:27:21.655Z,101468.87
2017-12-20T10:29:49.315Z,101468.02
2017-12-20T10:32:17.049Z,101467.95
2017-12-20T10:34:44.706Z,101470.34
2017-12-20T10:37:12.307Z,101467.48
2017-12-20T10:39:39.982Z,101467.11
2017-12-20T10:42:07.678Z,101460.49
2017-12-20T10:44:35.295Z,101456.91
2017-12-20T10:47:02.954Z,101454.77
2017-12-20T10:49:30.559Z,101452.86
2017-12-20T10:51:58.159Z,101457.02
2017-12-20T10:54:25.899Z,101447.98
2017-12-20T10:56:53.560Z,101456.77
2017-12-20T10:59:21.162Z,101447.95
2017-12-20T11:01:48.836Z,101449.81
2017-12-20T11:04:16.438Z,101442.95
2017-12-20T11:06:44.114Z,101446.95
2017-12-20T11:09:11.847Z,101439.25
2017-12-20T11:11:39.526Z,101438.73
2017-12-20T11:14:07.330Z,101436.55
2017-12-20T11:16:35.051Z,101434.11
2017-12-20T11:19:02.724Z,101427.89
2017-12-20T11:21:30.403Z,101433.09
2017-12-20T11:23:58.134Z,101427.81
2017-12-20T11:26:25.867Z,101433.86
2017-12-20T11:28:53.599Z,101437.87
2017-12-20T11:31:21.371Z,101437.34
2017-12-20T11:33:49.050Z,101426.91
2017-12-20T11:36:16.718Z,101422.53
2017-12-20T11:38:44.447Z,101422.03
2017-12-20T11:41:13.036Z,101424.39
2017-12-20T11:43:40.775Z,101426.83
2017-12-20T11:46:08.507Z,101422.66
2017-12-20T11:48:36.244Z,101415.58
2017-12-20T11:51:03.980Z,101417.03
2017-12-20T11:53:31.768Z,101416.34
2017-12-20T11:55:59.443Z,101410.16
2017-12-20T11:58:27.115Z,101407.70
2017-12-20T12:00:54.859Z,101403.36
2017-12-20T12:03:22.530Z,101396.89
2017-12-20T12:05:50.227Z,101396.73
2017-12-20T12:08:17.994Z,101390.92
2017-12-20T12:10:45.670Z,101395.12
2017-12-20T12:13:13.399Z,101398.88
2017-12-20T12:15:41.138Z,101399.50
2017-12-20T12:18:08.867Z,101399.50
2017-12-20T12:20:36.649Z,101400.61
2017-12-20T12:23:04.494Z,101393.19
2017-12-20T12:25:32.276Z,101401.89
2017-12-20T12:27:59.947Z,101410.13
2017-12-20T12:30:27.801Z,101413.30
2017-12-20T12:32:55.539Z,101411.89
2017-12-20T12:35:23.218Z,101411.52
2017-12-20T12:37:51.095Z,101412.03
2017-12-20T12:40:18.781Z,101408.27
2017-12-20T12:42:46.451Z,101414.76
2017-12-20T12:45:14.235Z,101414.58
2017-12-20T12:47:41.911Z,101416.17
2017-12-20T12:50:09.591Z,101421.05
2017-12-20T12:52:37.343Z,101423.97
2017-12-20T12:55:05.087Z,101421.45
2017-12-20T12:57:32.763Z,101420.08
2017-12-20T13:00:00.491Z,101410.93
2017-12-20T13:02:28.163Z,101419.98
2017-12-20T13:04:55.895Z,101424.77
2017-12-20T13:07:23.623Z,101426.45
2017-12-20T13:09:51.359Z,101415.82
2017-12-20T13:12:19.103Z,101422.02
2017-12-20T13:14:46.827Z,101427.92
2017-12-20T13:17:14.503Z,101426.87
2017-12-20T13:19:42.175Z,101426.75
2017-12-20T13:22:09.971Z,101427.31
2017-12-20T13:24:37.651Z,101433.75
2017-12-20T13:27:05.330Z,101438.23
2017-12-20T13:29:33.066Z,101435.41
2017-12-20T13:32:00.807Z,101430.09
2017-12-20T13:34:28.550Z,101433.75
2017-12-20T13:36:56.274Z,101432.14
2017-12-20T13:39:24.012Z,101434.96
2017-12-20T13:41:51.763Z,101436.86
2017-12-20T13:44:19.486Z,101436.07
2017-12-20T13:46:47.228Z,101438.17
2017-12-20T13:49:14.903Z,101440.92
2017-12-20T13:51:42.626Z,101437.52
2017-12-20T13:54:10.314Z,101434.23
2017-12-20T13:56:37.987Z,101439.30
2017-12-20T13:59:05.715Z,101442.03
2017-12-20T14:01:33.398Z,101442.72
2017-12-20T14:04:01.083Z,101437.20
2017-12-20T14:06:28.811Z,101443.79
2017-12-20T14:08:56.548Z,101440.96
2017-12-20T14:11:24.284Z,101449.88
2017-12-20T14:13:52.084Z,101444.13
2017-12-20T14:16:19.758Z,101450.09
2017-12-20T14:18:47.431Z,101453.22
2017-12-20T14:21:15.159Z,101454.45
2017-12-20T14:23:42.888Z,101450.17
2017-12-20T14:26:10.633Z,101461.66
2017-12-20T14:28:38.354Z,101459.52
2017-12-20T14:31:06.037Z,101462.76
2017-12-20T14:33:33.711Z,101467.30
2017-12-20T14:36:01.435Z,101462.14
2017-12-20T14:38:29.102Z,101466.44
2017-12-20T14:40:56.835Z,101463.90
2017-12-20T14:43:24.647Z,101467.80
2017-12-20T14:45:52.391Z,101467.47
2017-12-20T14:48:20.114Z,101467.13
2017-12-20T14:50:47.971Z,101471.11
2017-12-20T14:53:15.642Z,101465.97
2017-12-20T14:55:43.338Z,101469.25
2017-12-20T14:58:11.085Z,101471.94
2017-12-20T15:00:38.867Z,101466.20
2017-12-20T15:03:06.631Z,101470.03
2017-12-20T15:05:34.395Z,101467.30
2017-12-20T15:08:02.128Z,101472.66
2017-12-20T15:10:29.811Z,101473.17
2017-12-20T15:12:57.543Z,101478.95
2017-12-20T15:15:25.277Z,101481.22
2017-12-20T15:17:52.951Z,101465.22
2017-12-20T15:20:20.681Z,101475.71
2017-12-20T15:22:48.356Z,101485.78
2017-12-20T15:25:16.036Z,101482.66
2017-12-20T15:27:43.826Z,101486.78
2017-12-20T15:30:11.534Z,101487.81
2017-12-20T15:32:39.236Z,101488.89
2017-12-20T15:35:06.993Z,101486.94
2017-12-20T15:37:34.732Z,101484.17
2017-12-20T15:40:02.468Z,101494.57
2017-12-20T15:42:30.265Z,101499.69
2017-12-20T15:44:57.987Z,101505.45
2017-12-20T15:47:25.725Z,101504.25
2017-12-20T15:49:53.483Z,101504.59
2017-12-20T15:52:21.171Z,101501.63
2017-12-20T15:54:48.915Z,101506.31
2017-12-20T15:57:16.703Z,101508.11
2017-12-20T15:59:44.450Z,101509.59
2017-12-20T16:02:12.244Z,101516.12
2017-12-20T16:04:39.972Z,101510.34
2017-12-20T16:07:07.736Z,101508.38
2017-12-20T16:09:35.412Z,101515.22
2017-12-20T16:12:03.148Z,101518.22
2017-12-20T16:14:30.829Z,101525.59
2017-12-20T16:16:58.506Z,101526.38
2017-12-20T16:19:26.239Z,101528.72
2017-12-20T16:21:53.915Z,101524.11
2017-12-20T16:24:21.591Z,101529.27
2017-12-20T16:26:49.324Z,101525.71
2017-12-20T16:29:17.004Z,101529.73
2017-12-20T16:31:44.755Z,101534.14
2017-12-20T16:34:12.486Z,101529.11
2017-12-20T16:36:40.175Z,101539.02
2017-12-20T16:39:07.851Z,101536.17
2017-12-20T16:41:35.586Z,101534.14
2017-12-20T16:44:03.263Z,101538.55
2017-12-20T16:46:30.971Z,101539.26
2017-12-20T16:48:58.714Z,101539.06
2017-12-20T16:51:26.452Z,101547.88
2017-12-20T16:53:54.187Z,101546.13
2017-12-20T16:56:21.987Z,101550.85
2017-12-20T16:58:49.670Z,101550.66
2017-12-20T17:01:17.350Z,101560.73
2017-12-20T17:03:45.144Z,101563.38
2017-12-20T17:06:12.827Z,101560.53
2017-12-20T17:08:40.556Z,101567.63
2017-12-20T17:11:08.356Z,101564.47
2017-12-20T17:13:36.027Z,101571.39
2017-12-20T17:16:03.707Z,101569.31
2017-12-20T17:18:31.445Z,101570.60
2017-12-20T17:20:59.122Z,101563.00
2017-12-20T17:23:26.842Z,101566.98
2017-12-20T17:25:54.640Z,101563.34
2017-12-20T17:28:22.314Z,101570.14
2017-12-20T17:30:50.051Z,101574.74
2017-12-20T17:33:17.783Z,101568.14
2017-12-20T17:35:45.523Z,101572.13
2017-12-20T17:38:13.271Z,101564.83
2017-12-20T17:40:41.072Z,101573.30
2017-12-20T17:43:08.765Z,101561.97
2017-12-20T17:45:36.443Z,101564.44
2017-12-20T17:48:04.278Z,101558.58
2017-12-20T17:50:32.040Z,101571.00
2017-12-20T17:52:59.740Z,101560.65
2017-12-20T17:55:27.479Z,101557.95
2017-12-20T17:57:55.211Z,101562.45
2017-12-20T18:00:22.967Z,101555.34
2017-12-20T18:02:50.751Z,101556.04
2017-12-20T18:05:18.430Z,101559.52
2017-12-20T18:07:46.113Z,101560.57
2017-12-20T18:10:13.971Z,101554.17
2017-12-20T18:12:41.699Z,101545.73
2017-12-20T18:15:09.439Z,101552.14
2017-12-20T18:17:37.231Z,101554.05
2017-12-20T18:20:04.964Z,101554.80
2017-12-20T18:22:32.747Z,101556.28
2017-12-20T18:25:00.838Z,101557.09
2017-12-20T18:27:28.572Z,101548.00
2017-12-20T18:29:56.495Z,101547.34
2017-12-20T18:32:24.243Z,101550.14
2017-12-20T18:34:51.995Z,101546.44
2017-12-20T18:37:19.747Z,101541.36
2017-12-20T18:39:47.484Z,101544.75
2017-12-20T18:42:15.159Z,101541.67
2017-12-20T18:44:42.891Z,101534.76
2017-12-20T18:47:10.722Z,101534.10
2017-12-20T18:49:38.403Z,101531.80
2017-12-20T18:52:06.163Z,101527.54
2017-12-20T18:54:33.927Z,101529.61
2017-12-20T18:57:01.611Z,101521.59
2017-12-20T18:59:29.328Z,101525.74
2017-12-20T19:01:57.078Z,101530.59
2017-12-20T19:04:24.756Z,101536.33
2017-12-20T19:06:52.491Z,101539.50
2017-12-20T19:09:20.326Z,101533.09
2017-12-20T19:11:48.012Z,101536.64
2017-12-20T19:14:15.691Z,101531.33
2017-12-20T19:16:43.420Z,101530.28
2017-12-20T19:19:11.089Z,101531.48
2017-12-20T19:21:38.819Z,101537.19
2017-12-20T19:24:06.553Z,101539.49
2017-12-20T19:26:34.227Z,101545.11
2017-12-20T19:29:01.934Z,101543.39
2017-12-20T19:31:29.735Z,101545.89
2017-12-20T19:33:57.475Z,101546.75
2017-12-20T19:36:25.211Z,101542.34
2017-12-20T19:38:53.014Z,101544.53
2017-12-20T19:41:20.703Z,101545.70
2017-12-20T19:43:48.381Z,101539.19
2017-12-20T19:46:16.181Z,101544.64
2017-12-20T19:48:43.858Z,101535.36
2017-12-20T19:51:11.596Z,101539.50
2017-12-20T19:53:39.333Z,101537.86
2017-12-20T19:56:07.018Z,101538.33
2017-12-20T19:58:34.706Z,101536.92
2017-12-20T20:01:02.436Z,101542.27
2017-12-20T20:03:30.179Z,101537.66
2017-12-20T20:05:57.863Z,101540.12
2017-12-20T20:08:25.662Z,101536.10
2017-12-20T20:10:53.339Z,101536.10
2017-12-20T20:13:21.019Z,101534.19
2017-12-20T20:15:48.755Z,101537.03
2017-12-20T20:18:16.488Z,101531.58
2017-12-20T20:20:44.232Z,101533.88
2017-12-20T20:23:12.854Z,101538.01
2017-12-20T20:25:40.590Z,101537.89
2017-12-20T20:28:08.324Z,101533.64
2017-12-20T20:30:36.125Z,101528.06
2017-12-20T20:33:03.807Z,101527.47
2017-12-20T20:35:31.481Z,101530.02
2017-12-20T20:37:59.307Z,101525.91
2017-12-20T20:40:26.987Z,101526.42
2017-12-20T20:42:54.727Z,101531.14
2017-12-20T20:45:22.521Z,101538.17
2017-12-20T20:47:50.190Z,101534.03
2017-12-20T20:50:17.879Z,101527.00
2017-12-20T20:52:45.660Z,101533.20
2017-12-20T20:55:13.391Z,101533.45
2017-12-20T20:57:41.119Z,101528.72
2017-12-20T21:00:08.860Z,101529.11
2017-12-20T21:02:36.550Z,101533.72
2017-12-20T21:05:04.226Z,101523.80
2017-12-20T21:07:31.951Z,101527.63
2017-12-20T21:09:59.634Z,101542.58
2017-12-20T21:12:27.367Z,101542.30
2017-12-20T21:14:55.102Z,101539.14
2017-12-20T21:17:22.781Z,101540.00
2017-12-20T21:19:50.520Z,101532.03
2017-12-20T21:22:18.306Z,101529.50
2017-12-20T21:24:45.979Z,101532.15
2017-12-20T21:27:13.715Z,101547.99
2017-12-20T21:29:41.453Z,101534.11
2017-12-20T21:32:09.130Z,101530.87
2017-12-20T21:34:36.868Z,101531.77
2017-12-20T21:37:04.683Z,101534.80
2017-12-20T21:39:32.360Z,101534.38
2017-12-20T21:42:00.104Z,101532.66
2017-12-20T21:44:27.888Z,101535.39
2017-12-20T21:46:55.567Z,101544.22
2017-12-20T21:49:23.307Z,101537.42
2017-12-20T21:51:51.046Z,101537.45
2017-12-20T21:54:18.723Z,101531.75
2017-12-20T21:56:46.415Z,101536.67
2017-12-20T21:59:14.223Z,101544.00
2017-12-20T22:01:41.951Z,101542.41
2017-12-20T22:04:09.633Z,101536.91
2017-12-20T22:06:37.371Z,101539.48
2017-12-20T22:09:05.107Z,101538.67
2017-12-20T22:11:32.860Z,101543.78
2017-12-20T22:14:00.594Z,101546.55
2017-12-20T22:16:28.323Z,101542.33
2017-12-20T22:18:56.003Z,101552.52
2017-12-20T22:21:23.789Z,101549.05
2017-12-20T22:23:51.478Z,101547.13
2017-12-20T22:26:19.218Z,101553.97
2017-12-20T22:28:46.942Z,101553.65
2017-12-20T22:31:14.638Z,101543.34
2017-12-20T22:33:42.338Z,101535.74
2017-12-20T22:36:10.110Z,101538.81
2017-12-20T22:38:37.797Z,101542.14
2017-12-20T22:41:05.489Z,101545.22
2017-12-20T22:43:33.294Z,101541.47
2017-12-20T22:46:00.977Z,101542.18
2017-12-20T22:48:28.686Z,101545.88
2017-12-20T22:50:56.415Z,101538.43
2017-12-20T22:53:24.155Z,101540.45
2017-12-20T22:55:51.827Z,101539.41
2017-12-20T22:58:19.567Z,101539.84
2017-12-20T23:00:47.407Z,101536.95
2017-12-20T23:03:15.085Z,101539.41
2017-12-20T23:05:42.807Z,101532.81
2017-12-20T23:08:10.487Z,101539.45
2017-12-20T23:10:38.166Z,101537.33
2017-12-20T23:13:05.956Z,101542.06
2017-12-20T23:15:33.631Z,101540.58
2017-12-20T23:18:01.368Z,101539.91
2017-12-20T23:20:29.096Z,101549.00
2017-12-20T23:22:56.775Z,101549.52
2017-12-20T23:25:24.511Z,101553.30
2017-12-20T23:27:52.317Z,101557.94
2017-12-20T23:30:20.051Z,101550.17
2017-12-20T23:32:47.780Z,101551.31
2017-12-20T23:35:15.515Z,101546.16
2017-12-20T23:37:43.266Z,101555.64
2017-12-20T23:40:10.947Z,101556.63
2017-12-20T23:42:38.699Z,101559.81
2017-12-20T23:45:06.383Z,101550.79
2017-12-20T23:47:34.057Z,101544.14
2017-12-20T23:50:01.786Z,101553.88
2017-12-20T23:52:29.468Z,101555.16
2017-12-20T23:54:57.203Z,101561.83
2017-12-20T23:57:24.943Z,101561.56
2017-12-20T23:59:52.618Z,101562.03
